Time;durP1;ratioP1;P1;durP2;ratioP2;P2;SDS_P1;SDS_P2;PMS_P1;PMS_P2;Temp;Humidity;BMP_temperature;BMP_pressure;BME280_temperature;BME280_humidity;BME280_pressure;Samples;Min_cycle;Max_cycle;Signal;HPM_P1;HPM_P2
2022/07/09 00:02:04;;;;;;;9.88;5.63;;;16.80;99.90;;;;;;5015843;28;20037;-67
2022/07/09 00:04:30;;;;;;;11.85;6.25;;;16.90;99.90;;;;;;5046130;28;20082;-67
2022/07/09 00:06:56;;;;;;;15.30;6.70;;;16.80;99.90;;;;;;5030797;28;20122;-67
2022/07/09 00:09:21;;;;;;;10.82;5.85;;;16.80;99.90;;;;;;5032156;28;20615;-67
2022/07/09 00:11:47;;;;;;;12.82;5.90;;;16.80;99.90;;;;;;5032758;28;20044;-66
2022/07/09 00:14:13;;;;;;;13.02;5.78;;;16.70;99.90;;;;;;5034855;28;20082;-66
2022/07/09 00:16:38;;;;;;;14.57;6.35;;;16.70;99.90;;;;;;5034122;28;20095;-67
2022/07/09 00:19:04;;;;;;;12.00;5.88;;;16.70;99.90;;;;;;5033378;28;20473;-67
2022/07/09 00:21:30;;;;;;;11.65;5.78;;;16.70;99.90;;;;;;5034908;28;20044;-68
2022/07/09 00:23:55;;;;;;;12.70;6.25;;;16.70;99.90;;;;;;5031918;28;20114;-67
2022/07/09 00:26:21;;;;;;;14.43;5.70;;;16.70;99.90;;;;;;5017670;28;20068;-67
2022/07/09 00:28:47;;;;;;;10.55;6.00;;;16.60;99.90;;;;;;5017275;28;20135;-67
2022/07/09 00:31:12;;;;;;;12.25;5.57;;;16.60;99.90;;;;;;5033586;28;20049;-67
2022/07/09 00:33:38;;;;;;;13.30;6.68;;;16.60;99.90;;;;;;5017375;28;20057;-68
2022/07/09 00:36:04;;;;;;;9.85;5.30;;;16.60;99.90;;;;;;5034077;28;20527;-68
2022/07/09 00:38:29;;;;;;;12.75;5.40;;;16.50;99.90;;;;;;5033102;28;20497;-67
2022/07/09 00:40:55;;;;;;;11.63;4.65;;;16.60;99.90;;;;;;5034816;28;20080;-67
2022/07/09 00:43:22;;;;;;;10.57;5.43;;;16.60;99.90;;;;;;5017556;28;20040;-68
2022/07/09 00:45:48;;;;;;;12.05;5.55;;;16.60;99.90;;;;;;5034969;28;20033;-67
2022/07/09 00:48:14;;;;;;;12.30;5.68;;;16.60;99.90;;;;;;5034690;28;20037;-67
2022/07/09 00:50:41;;;;;;;12.30;4.93;;;16.60;99.90;;;;;;5034764;28;20538;-68
2022/07/09 00:53:22;;;;;;;10.38;5.10;;;16.60;99.90;;;;;;5036404;28;20051;-67
2022/07/09 00:55:48;;;;;;;12.02;5.50;;;16.50;99.90;;;;;;5021758;28;20041;-69
2022/07/09 00:58:18;;;;;;;13.05;5.15;;;16.50;99.90;;;;;;5021160;28;20059;-69
2022/07/09 01:00:44;;;;;;;8.82;4.53;;;16.50;99.90;;;;;;5019225;28;20370;-69
2022/07/09 01:03:10;;;;;;;9.45;4.60;;;16.50;99.90;;;;;;5038152;28;20049;-69
2022/07/09 01:05:35;;;;;;;10.52;5.10;;;16.50;99.90;;;;;;5021660;28;20390;-69
2022/07/09 01:08:07;;;;;;;10.55;5.47;;;16.50;99.90;;;;;;5037239;28;20489;-69
2022/07/09 01:10:34;;;;;;;8.60;4.70;;;16.50;99.90;;;;;;5020795;28;20501;-70
2022/07/09 01:13:02;;;;;;;10.38;5.55;;;16.50;99.90;;;;;;5021339;28;20128;-70
2022/07/09 01:15:27;;;;;;;10.48;5.57;;;16.50;99.90;;;;;;5021773;28;20447;-68
2022/07/09 01:17:55;;;;;;;10.60;4.90;;;16.50;99.90;;;;;;5020808;28;20045;-70
2022/07/09 01:20:39;;;;;;;10.82;4.88;;;16.60;99.90;;;;;;5020999;28;20048;-69
2022/07/09 01:23:04;;;;;;;13.32;5.18;;;16.60;99.90;;;;;;5038061;28;20040;-69
2022/07/09 01:25:46;;;;;;;13.60;5.90;;;16.60;99.90;;;;;;5034139;28;20482;-69
2022/07/09 01:28:12;;;;;;;12.13;5.32;;;16.60;99.90;;;;;;5034825;28;20064;-69
2022/07/09 01:30:39;;;;;;;12.32;5.30;;;16.60;99.90;;;;;;5037343;28;20501;-68
2022/07/09 01:33:06;;;;;;;10.73;5.00;;;16.60;99.90;;;;;;5036613;28;20041;-69
2022/07/09 01:35:31;;;;;;;13.15;5.82;;;16.60;99.90;;;;;;5036218;28;20041;-68
2022/07/09 01:37:57;;;;;;;14.10;6.25;;;16.60;99.90;;;;;;5037528;28;20409;-69
2022/07/09 01:40:23;;;;;;;14.90;5.97;;;16.50;99.90;;;;;;5020469;28;20570;-69
2022/07/09 01:42:49;;;;;;;9.35;4.68;;;16.50;99.90;;;;;;5020613;28;20436;-69
2022/07/09 01:45:17;;;;;;;13.18;6.05;;;16.40;99.90;;;;;;5036949;28;20047;-69
2022/07/09 01:47:43;;;;;;;13.93;5.95;;;16.50;99.90;;;;;;5050063;28;20358;-68
2022/07/09 01:50:09;;;;;;;14.93;6.22;;;16.50;99.90;;;;;;5020221;28;20456;-68
2022/07/09 01:52:36;;;;;;;10.23;5.05;;;16.50;99.90;;;;;;5015763;28;20029;-69
2022/07/09 01:55:03;;;;;;;12.50;5.97;;;16.60;99.90;;;;;;5018428;28;20500;-69
2022/07/09 01:57:28;;;;;;;14.30;6.47;;;16.60;99.90;;;;;;5031803;28;20082;-69
2022/07/09 01:59:54;;;;;;;13.05;6.03;;;16.50;99.90;;;;;;5016727;28;20131;-69
2022/07/09 02:02:20;;;;;;;10.20;6.10;;;16.40;99.90;;;;;;5019570;28;20037;-69
2022/07/09 02:04:46;;;;;;;12.20;6.13;;;16.40;99.90;;;;;;5017818;28;20119;-68
2022/07/09 02:07:13;;;;;;;16.95;7.30;;;16.50;99.90;;;;;;5033745;28;20045;-68
2022/07/09 02:09:39;;;;;;;11.38;5.82;;;16.40;99.90;;;;;;5020423;28;20164;-68
2022/07/09 02:12:05;;;;;;;12.07;6.28;;;16.40;99.90;;;;;;5019507;28;20115;-68
2022/07/09 02:14:31;;;;;;;12.20;6.50;;;16.50;99.90;;;;;;5020627;28;20070;-68
2022/07/09 02:16:57;;;;;;;13.20;6.85;;;16.50;99.90;;;;;;5034433;28;20037;-68
2022/07/09 02:19:22;;;;;;;14.65;6.53;;;16.50;99.90;;;;;;5035533;28;20051;-69
2022/07/09 02:21:48;;;;;;;16.25;6.45;;;16.50;99.90;;;;;;5013596;28;20494;-68
2022/07/09 02:24:15;;;;;;;13.82;6.10;;;16.50;99.90;;;;;;5026416;28;20048;-69
2022/07/09 02:26:40;;;;;;;13.98;5.93;;;16.50;99.90;;;;;;5019963;28;20397;-69
2022/07/09 02:29:06;;;;;;;11.88;6.45;;;16.50;99.90;;;;;;5036548;28;20037;-69
2022/07/09 02:31:31;;;;;;;14.50;6.80;;;16.50;99.90;;;;;;5034499;28;20564;-68
2022/07/09 02:33:57;;;;;;;13.05;6.88;;;16.40;99.90;;;;;;5049959;28;20037;-68
2022/07/09 02:36:23;;;;;;;11.85;6.88;;;16.40;99.90;;;;;;5018175;28;20467;-69
2022/07/09 02:38:49;;;;;;;14.48;6.85;;;16.40;99.90;;;;;;5035023;28;20079;-68
2022/07/09 02:41:14;;;;;;;11.98;7.28;;;16.40;99.90;;;;;;5017138;28;20144;-70
2022/07/09 02:43:43;;;;;;;13.82;6.55;;;16.40;99.90;;;;;;5020037;28;20041;-69
2022/07/09 02:46:11;;;;;;;15.35;7.65;;;16.40;99.90;;;;;;5018710;28;20404;-69
2022/07/09 02:48:38;;;;;;;14.38;6.63;;;16.40;99.90;;;;;;5035264;28;20125;-69
2022/07/09 02:51:04;;;;;;;14.43;7.38;;;16.40;99.90;;;;;;5029847;28;20048;-69
2022/07/09 02:53:30;;;;;;;13.20;7.63;;;16.40;99.90;;;;;;5018647;28;20036;-68
2022/07/09 02:55:55;;;;;;;13.23;7.57;;;16.40;99.90;;;;;;5033996;28;20049;-69
2022/07/09 02:58:21;;;;;;;12.60;7.20;;;16.40;99.90;;;;;;5035948;28;20036;-69
2022/07/09 03:00:47;;;;;;;14.60;7.50;;;16.40;99.90;;;;;;5033754;28;20082;-68
2022/07/09 03:03:13;;;;;;;14.48;7.47;;;16.40;99.90;;;;;;5019799;28;20398;-69
2022/07/09 03:05:38;;;;;;;12.85;7.88;;;16.30;99.90;;;;;;5017849;28;20033;-69
2022/07/09 03:08:05;;;;;;;13.80;6.82;;;16.40;99.90;;;;;;5035109;28;20374;-68
2022/07/09 03:10:31;;;;;;;12.02;7.15;;;16.40;99.90;;;;;;5032752;28;20052;-68
2022/07/09 03:12:56;;;;;;;14.57;7.50;;;16.40;99.90;;;;;;5034459;28;20041;-69
2022/07/09 03:15:22;;;;;;;12.68;7.25;;;16.40;99.90;;;;;;5033749;28;20045;-69
2022/07/09 03:17:49;;;;;;;13.70;6.97;;;16.50;99.90;;;;;;5035920;28;20108;-69
2022/07/09 03:20:15;;;;;;;15.75;7.78;;;16.40;99.90;;;;;;5032188;28;20207;-68
2022/07/09 03:22:41;;;;;;;12.73;6.40;;;16.50;99.90;;;;;;5034851;28;20041;-68
2022/07/09 03:25:07;;;;;;;13.20;6.80;;;16.40;99.90;;;;;;5033541;28;20029;-69
2022/07/09 03:27:33;;;;;;;12.57;7.03;;;16.40;99.90;;;;;;5034707;28;20452;-68
2022/07/09 03:29:59;;;;;;;12.13;6.40;;;16.40;99.90;;;;;;5032939;28;20053;-69
2022/07/09 03:32:25;;;;;;;12.27;7.10;;;16.40;99.90;;;;;;5033954;28;20086;-69
2022/07/09 03:34:54;;;;;;;10.63;6.03;;;16.40;99.90;;;;;;5016542;28;20405;-69
2022/07/09 03:37:20;;;;;;;12.63;6.85;;;16.30;99.90;;;;;;5017980;28;20064;-68
2022/07/09 03:39:46;;;;;;;13.00;6.82;;;16.40;99.90;;;;;;5033319;28;20116;-69
2022/07/09 03:42:12;;;;;;;13.13;6.95;;;16.40;99.90;;;;;;5016207;28;20051;-69
2022/07/09 03:44:38;;;;;;;12.60;6.55;;;16.30;99.90;;;;;;5035318;28;20045;-69
2022/07/09 03:47:05;;;;;;;13.18;6.35;;;16.30;99.90;;;;;;5031786;28;20102;-68
2022/07/09 03:49:30;;;;;;;11.57;6.05;;;16.30;99.90;;;;;;5035197;28;20041;-69
2022/07/09 03:51:56;;;;;;;14.30;6.57;;;16.40;99.90;;;;;;5015474;28;20041;-68
2022/07/09 03:54:22;;;;;;;13.15;6.25;;;16.30;99.90;;;;;;5018174;28;20045;-68
2022/07/09 03:56:48;;;;;;;12.77;6.43;;;16.30;99.90;;;;;;5032184;28;20042;-69
2022/07/09 03:59:13;;;;;;;11.02;6.15;;;16.30;99.90;;;;;;5033315;28;20120;-68
2022/07/09 04:01:39;;;;;;;12.65;6.32;;;16.20;99.90;;;;;;5016598;28;20036;-68
2022/07/09 04:04:05;;;;;;;13.95;6.50;;;16.20;99.90;;;;;;5035118;28;20077;-68
2022/07/09 04:06:30;;;;;;;13.60;5.97;;;16.30;99.90;;;;;;5030880;28;20394;-69
2022/07/09 04:08:56;;;;;;;12.13;5.60;;;16.30;99.90;;;;;;5023881;28;20052;-68
2022/07/09 04:11:21;;;;;;;11.45;6.25;;;16.30;99.90;;;;;;5027793;28;20044;-68
2022/07/09 04:13:47;;;;;;;11.55;5.30;;;16.30;99.90;;;;;;5033966;28;20041;-68
2022/07/09 04:16:13;;;;;;;10.27;5.30;;;16.30;99.90;;;;;;5032917;28;20044;-68
2022/07/09 04:18:42;;;;;;;11.80;5.78;;;16.30;99.90;;;;;;5031767;28;20401;-68
2022/07/09 04:21:08;;;;;;;11.93;5.97;;;16.30;99.90;;;;;;5022435;28;20539;-68
2022/07/09 04:23:34;;;;;;;12.40;6.30;;;16.20;99.90;;;;;;5035015;28;20045;-68
2022/07/09 04:26:00;;;;;;;13.80;6.10;;;16.20;99.90;;;;;;5033764;28;20464;-68
2022/07/09 04:28:26;;;;;;;11.25;6.15;;;16.20;99.90;;;;;;5037264;28;20041;-69
2022/07/09 04:30:52;;;;;;;13.00;6.20;;;16.20;99.90;;;;;;5033069;28;20064;-69
2022/07/09 04:33:18;;;;;;;12.25;5.75;;;16.20;99.90;;;;;;5028103;28;20420;-69
2022/07/09 04:35:44;;;;;;;12.32;6.03;;;16.20;99.90;;;;;;5036999;28;20044;-68
2022/07/09 04:38:12;;;;;;;12.25;5.53;;;16.20;99.90;;;;;;5036146;28;20127;-68
2022/07/09 04:40:38;;;;;;;9.63;5.05;;;16.20;99.90;;;;;;5037020;28;20033;-69
2022/07/09 04:43:05;;;;;;;10.65;5.80;;;16.20;99.90;;;;;;5020873;28;20119;-69
2022/07/09 04:45:31;;;;;;;10.02;5.35;;;16.20;99.90;;;;;;5037413;28;20371;-68
2022/07/09 04:48:00;;;;;;;10.35;4.93;;;16.30;99.90;;;;;;5021148;28;20033;-69
2022/07/09 04:50:26;;;;;;;11.45;5.50;;;16.30;99.90;;;;;;5019336;28;20528;-68
2022/07/09 04:52:52;;;;;;;11.07;5.32;;;16.30;99.90;;;;;;5044856;28;20037;-68
2022/07/09 04:55:18;;;;;;;9.57;4.75;;;16.40;99.90;;;;;;5055261;28;20045;-68
2022/07/09 04:57:44;;;;;;;11.60;5.32;;;16.30;99.90;;;;;;5037991;28;20036;-68
2022/07/09 05:00:10;;;;;;;10.55;5.10;;;16.30;99.90;;;;;;5021518;28;20386;-69
2022/07/09 05:02:37;;;;;;;13.50;5.80;;;16.30;99.90;;;;;;5019612;28;20512;-69
2022/07/09 05:05:03;;;;;;;12.88;5.80;;;16.30;99.90;;;;;;5020752;28;20048;-69
2022/07/09 05:07:30;;;;;;;9.80;4.93;;;16.30;99.90;;;;;;5034146;28;20064;-69
2022/07/09 05:09:56;;;;;;;14.43;5.70;;;16.40;99.90;;;;;;5037641;28;20496;-69
2022/07/09 05:12:22;;;;;;;10.60;5.30;;;16.40;99.90;;;;;;5034716;28;20124;-69
2022/07/09 05:14:47;;;;;;;12.25;5.80;;;16.40;99.90;;;;;;5019820;28;20174;-69
2022/07/09 05:17:13;;;;;;;9.85;5.57;;;16.40;99.90;;;;;;5021027;28;20396;-69
2022/07/09 05:19:38;;;;;;;12.75;5.45;;;16.50;99.90;;;;;;5020415;28;20486;-69
2022/07/09 05:22:04;;;;;;;12.32;6.50;;;16.50;99.90;;;;;;5020558;28;20055;-69
2022/07/09 05:24:30;;;;;;;13.70;5.55;;;16.50;99.90;;;;;;5020391;28;20037;-68
2022/07/09 05:26:55;;;;;;;11.80;5.30;;;16.50;99.90;;;;;;5032572;28;20111;-68
2022/07/09 05:29:22;;;;;;;11.45;5.40;;;16.60;99.90;;;;;;5034970;28;20045;-68
2022/07/09 05:31:48;;;;;;;11.68;5.65;;;16.60;99.90;;;;;;5017884;28;20085;-68
2022/07/09 05:34:15;;;;;;;11.85;5.68;;;16.70;99.90;;;;;;5027661;28;20038;-69
2022/07/09 05:36:41;;;;;;;13.52;6.25;;;16.80;99.90;;;;;;5036957;28;20083;-68
2022/07/09 05:39:07;;;;;;;11.68;5.43;;;16.80;99.90;;;;;;5010289;28;20484;-68
2022/07/09 05:41:33;;;;;;;12.88;5.88;;;16.90;99.90;;;;;;5031976;28;20453;-69
2022/07/09 05:43:59;;;;;;;11.32;5.75;;;16.90;99.90;;;;;;5029064;28;20067;-69
2022/07/09 05:46:25;;;;;;;11.27;5.65;;;16.90;99.90;;;;;;5019021;28;20037;-69
2022/07/09 05:48:51;;;;;;;11.65;5.70;;;16.90;99.90;;;;;;5035278;28;20083;-68
2022/07/09 05:51:16;;;;;;;10.65;5.88;;;16.90;99.90;;;;;;5015892;28;20037;-68
2022/07/09 05:53:42;;;;;;;10.63;4.85;;;16.90;99.90;;;;;;5009848;28;20460;-68
2022/07/09 05:56:08;;;;;;;9.88;5.15;;;16.90;99.90;;;;;;5034922;28;20547;-68
2022/07/09 05:58:34;;;;;;;10.77;5.65;;;16.90;99.90;;;;;;5019385;28;20037;-69
2022/07/09 06:00:59;;;;;;;10.05;5.18;;;16.90;99.90;;;;;;5036648;28;20040;-69
2022/07/09 06:03:25;;;;;;;12.15;5.18;;;17.00;99.90;;;;;;5034833;28;20117;-69
2022/07/09 06:05:50;;;;;;;10.85;5.10;;;17.00;99.90;;;;;;5034441;28;20463;-69
2022/07/09 06:08:16;;;;;;;8.80;4.75;;;17.00;99.90;;;;;;5016071;28;20037;-69
2022/07/09 06:10:42;;;;;;;11.10;5.40;;;17.10;99.90;;;;;;5018815;28;20124;-68
2022/07/09 06:13:07;;;;;;;12.65;5.38;;;17.10;99.90;;;;;;5017143;28;20033;-69
2022/07/09 06:15:33;;;;;;;10.43;5.22;;;17.20;99.90;;;;;;5017640;28;20091;-69
2022/07/09 06:17:59;;;;;;;12.60;5.30;;;17.10;99.90;;;;;;5019852;28;20124;-69
2022/07/09 06:20:24;;;;;;;9.75;4.95;;;17.20;99.90;;;;;;5017679;28;20493;-69
2022/07/09 06:22:50;;;;;;;10.20;5.22;;;17.30;99.90;;;;;;5035004;28;20029;-69
2022/07/09 06:25:15;;;;;;;11.77;5.13;;;17.30;99.90;;;;;;5035442;28;20440;-69
2022/07/09 06:27:42;;;;;;;9.07;4.45;;;17.30;99.90;;;;;;5018920;28;20040;-69
2022/07/09 06:30:08;;;;;;;10.82;4.80;;;17.30;99.90;;;;;;5034401;28;20095;-69
2022/07/09 06:32:34;;;;;;;10.00;4.53;;;17.30;99.90;;;;;;5026357;28;20045;-69
2022/07/09 06:35:00;;;;;;;8.55;4.53;;;17.30;99.90;;;;;;5028010;28;20036;-69
2022/07/09 06:37:25;;;;;;;9.63;4.57;;;17.30;99.90;;;;;;5030515;28;20041;-69
2022/07/09 06:39:55;;;;;;;11.45;4.55;;;17.30;99.90;;;;;;5033306;28;20405;-69
2022/07/09 06:42:21;;;;;;;9.77;4.50;;;17.30;99.90;;;;;;5034560;28;20037;-69
2022/07/09 06:44:47;;;;;;;8.98;4.00;;;17.40;99.90;;;;;;5029454;28;20184;-69
2022/07/09 06:47:12;;;;;;;10.93;4.22;;;17.40;99.90;;;;;;5031926;28;20029;-69
2022/07/09 06:49:38;;;;;;;9.32;4.22;;;17.40;99.90;;;;;;5034397;28;20543;-69
2022/07/09 06:52:04;;;;;;;9.82;4.30;;;17.50;99.90;;;;;;5017305;28;20060;-69
2022/07/09 06:54:30;;;;;;;10.88;4.05;;;17.50;99.90;;;;;;5034298;28;20040;-69
2022/07/09 06:56:56;;;;;;;9.73;3.97;;;17.60;99.90;;;;;;5034689;28;20047;-69
2022/07/09 06:59:23;;;;;;;9.55;4.13;;;17.60;99.90;;;;;;5034865;28;20041;-69
2022/07/09 07:01:49;;;;;;;9.07;4.53;;;17.70;99.90;;;;;;5033595;28;20533;-69
2022/07/09 07:04:14;;;;;;;9.27;3.85;;;17.60;99.90;;;;;;5034394;28;20041;-69
2022/07/09 07:06:45;;;;;;;9.68;3.97;;;17.70;99.90;;;;;;5032403;28;20033;-69
2022/07/09 07:09:12;;;;;;;10.23;3.90;;;17.70;99.90;;;;;;5034478;28;20072;-69
2022/07/09 07:11:37;;;;;;;7.90;3.90;;;17.70;99.90;;;;;;5033248;28;20599;-74
2022/07/09 07:14:03;;;;;;;8.75;3.58;;;17.80;99.90;;;;;;5011545;28;20120;-73
2022/07/09 07:16:28;;;;;;;7.50;3.22;;;17.70;99.90;;;;;;5034221;28;20386;-73
2022/07/09 07:18:54;;;;;;;8.25;3.33;;;17.80;99.90;;;;;;5017926;28;20049;-73
2022/07/09 07:21:20;;;;;;;8.05;3.80;;;17.80;99.90;;;;;;5016817;28;20063;-69
2022/07/09 07:23:45;;;;;;;8.88;3.28;;;17.80;99.90;;;;;;5035049;28;20045;-69
2022/07/09 07:26:11;;;;;;;8.63;3.10;;;17.80;99.90;;;;;;5033875;28;20124;-69
2022/07/09 07:28:36;;;;;;;7.05;3.28;;;17.80;99.90;;;;;;5017391;28;20041;-69
2022/07/09 07:31:02;;;;;;;9.68;3.28;;;17.80;99.90;;;;;;5033790;28;20420;-69
2022/07/09 07:33:28;;;;;;;11.32;3.25;;;17.90;99.90;;;;;;5050658;28;20044;-69
2022/07/09 07:35:53;;;;;;;6.78;2.72;;;17.90;99.90;;;;;;5030083;28;20033;-69
2022/07/09 07:38:19;;;;;;;6.72;3.00;;;17.90;99.90;;;;;;5032179;28;20568;-69
2022/07/09 07:40:44;;;;;;;8.60;2.90;;;18.00;99.90;;;;;;5032784;28;20535;-69
2022/07/09 07:43:11;;;;;;;7.50;2.90;;;18.00;99.90;;;;;;5033951;28;20083;-69
2022/07/09 07:45:37;;;;;;;7.38;2.65;;;18.10;99.90;;;;;;5034110;28;20073;-69
2022/07/09 07:48:03;;;;;;;7.63;2.97;;;18.20;99.90;;;;;;5034083;28;20080;-69
2022/07/09 07:50:29;;;;;;;8.95;2.90;;;18.30;99.90;;;;;;5015931;28;20037;-69
2022/07/09 07:52:54;;;;;;;8.23;3.10;;;18.30;99.90;;;;;;5034371;28;20158;-69
2022/07/09 07:55:20;;;;;;;9.48;2.95;;;18.30;99.90;;;;;;5033346;28;20401;-69
2022/07/09 07:57:46;;;;;;;7.63;2.70;;;18.40;99.90;;;;;;5017986;28;20044;-69
2022/07/09 08:00:12;;;;;;;9.38;2.70;;;18.50;99.90;;;;;;5033710;28;20551;-69
2022/07/09 08:02:37;;;;;;;5.35;2.30;;;18.50;99.90;;;;;;5019505;28;20037;-69
2022/07/09 08:05:04;;;;;;;9.48;2.70;;;18.50;99.90;;;;;;5039004;28;20068;-69
2022/07/09 08:07:30;;;;;;;6.10;2.30;;;18.50;99.90;;;;;;5019814;28;20045;-69
2022/07/09 08:09:56;;;;;;;7.18;2.42;;;18.50;99.90;;;;;;5033493;28;20037;-69
2022/07/09 08:12:21;;;;;;;5.78;2.40;;;18.60;99.90;;;;;;5020642;28;20441;-69
2022/07/09 08:14:47;;;;;;;8.40;2.80;;;18.70;99.90;;;;;;5021812;28;20047;-69
2022/07/09 08:17:13;;;;;;;7.18;2.72;;;18.70;99.90;;;;;;5021444;28;20473;-69
2022/07/09 08:19:38;;;;;;;4.70;2.00;;;18.80;99.90;;;;;;5037214;28;20033;-69
2022/07/09 08:22:04;;;;;;;5.38;2.13;;;18.90;99.90;;;;;;5037102;28;20463;-69
2022/07/09 08:24:30;;;;;;;6.50;2.15;;;19.20;99.90;;;;;;5037927;28;20037;-69
2022/07/09 08:26:56;;;;;;;5.85;2.05;;;19.40;99.90;;;;;;5017105;28;20508;-69
2022/07/09 08:29:22;;;;;;;5.47;2.00;;;19.40;99.90;;;;;;5033246;28;20044;-69
2022/07/09 08:31:49;;;;;;;4.30;1.98;;;19.50;99.90;;;;;;5030742;28;20057;-68
2022/07/09 08:34:15;;;;;;;7.00;2.13;;;19.70;99.90;;;;;;5032684;28;20502;-68
2022/07/09 08:36:40;;;;;;;5.75;1.70;;;19.80;99.90;;;;;;5020187;28;20048;-69
2022/07/09 08:39:06;;;;;;;4.20;1.60;;;19.80;99.90;;;;;;5037439;28;20128;-73
2022/07/09 08:41:32;;;;;;;6.45;1.88;;;19.80;99.90;;;;;;5031848;28;20486;-74
2022/07/09 08:43:57;;;;;;;5.05;1.90;;;19.60;99.90;;;;;;5015204;28;20033;-69
2022/07/09 08:46:23;;;;;;;5.05;1.88;;;19.70;99.90;;;;;;5036566;28;20449;-69
2022/07/09 08:48:49;;;;;;;4.15;2.08;;;19.60;99.90;;;;;;5037016;28;20063;-69
2022/07/09 08:51:15;;;;;;;4.43;1.83;;;19.70;99.90;;;;;;5031975;28;20408;-70
2022/07/09 08:53:44;;;;;;;7.05;1.90;;;19.90;99.90;;;;;;5019782;28;20056;-69
2022/07/09 08:56:10;;;;;;;5.35;2.17;;;20.10;99.90;;;;;;5037104;28;20037;-69
2022/07/09 08:58:39;;;;;;;6.65;2.03;;;20.30;99.90;;;;;;5034615;28;20485;-69
2022/07/09 09:01:06;;;;;;;6.07;1.70;;;20.50;99.90;;;;;;5034994;28;20033;-69
2022/07/09 09:03:32;;;;;;;6.30;2.00;;;20.60;99.90;;;;;;5036822;28;20045;-69
2022/07/09 09:06:08;;;;;;;6.55;1.60;;;20.60;99.90;;;;;;5017929;28;20055;-70
2022/07/09 09:08:35;;;;;;;4.38;1.60;;;20.40;99.90;;;;;;5012408;28;20052;-70
2022/07/09 09:11:03;;;;;;;5.72;1.60;;;20.20;99.90;;;;;;5016463;28;20044;-70
2022/07/09 09:13:28;;;;;;;6.75;1.65;;;20.10;99.90;;;;;;5028763;28;20055;-70
2022/07/09 09:16:08;;;;;;;6.72;1.85;;;20.20;99.90;;;;;;5014495;28;20041;-70
2022/07/09 09:18:40;;;;;;;5.53;2.00;;;20.20;99.90;;;;;;5033054;28;20061;-70
2022/07/09 09:21:08;;;;;;;7.32;1.80;;;20.20;99.90;;;;;;5021450;28;20037;-70
2022/07/09 09:23:44;;;;;;;8.35;1.90;;;20.30;99.90;;;;;;5035585;28;20037;-69
2022/07/09 09:26:14;;;;;;;5.68;1.80;;;20.30;99.90;;;;;;5032413;28;20030;-69
2022/07/09 09:28:52;;;;;;;6.13;1.45;;;20.40;99.90;;;;;;5017919;28;20098;-69
2022/07/09 09:31:44;;;;;;;5.90;1.50;;;20.50;99.90;;;;;;5017818;28;20046;-69
2022/07/09 09:34:15;;;;;;;5.40;1.65;;;20.60;99.90;;;;;;5015909;28;20517;-69
2022/07/09 09:36:43;;;;;;;4.28;1.70;;;20.80;99.90;;;;;;5000370;28;20056;-69
2022/07/09 09:39:18;;;;;;;6.82;2.45;;;20.80;99.90;;;;;;5038261;28;20041;-69
2022/07/09 09:41:49;;;;;;;5.35;1.45;;;20.70;99.90;;;;;;5020863;28;20045;-68
2022/07/09 09:44:24;;;;;;;3.27;1.40;;;20.50;99.90;;;;;;5037342;28;20076;-69
2022/07/09 09:46:50;;;;;;;7.03;1.67;;;20.40;99.90;;;;;;5021250;28;20040;-69
2022/07/09 09:49:16;;;;;;;3.42;1.38;;;20.40;99.90;;;;;;5020892;28;20037;-69
2022/07/09 09:51:44;;;;;;;5.72;1.70;;;20.50;99.90;;;;;;5020769;28;20041;-68
2022/07/09 09:54:11;;;;;;;5.00;1.70;;;20.60;99.90;;;;;;5037656;28;20428;-69
2022/07/09 09:56:39;;;;;;;5.85;1.80;;;20.80;99.90;;;;;;5020627;28;20044;-69
2022/07/09 09:59:05;;;;;;;4.93;1.40;;;20.80;99.90;;;;;;5037212;28;20033;-69
2022/07/09 10:01:30;;;;;;;5.80;1.55;;;20.80;99.90;;;;;;5020480;28;20101;-69
2022/07/09 10:03:57;;;;;;;5.05;1.33;;;20.80;99.90;;;;;;5016856;28;20095;-69
2022/07/09 10:06:23;;;;;;;6.93;2.03;;;20.90;99.90;;;;;;5013949;28;20036;-68
2022/07/09 10:08:49;;;;;;;5.97;1.65;;;20.90;99.90;;;;;;5037033;28;20029;-68
2022/07/09 10:11:14;;;;;;;5.72;1.55;;;20.90;99.90;;;;;;5036930;28;20047;-69
2022/07/09 10:13:56;;;;;;;7.07;1.92;;;20.70;99.90;;;;;;5034250;28;20033;-68
2022/07/09 10:16:32;;;;;;;;;;;20.70;99.90;;;;;;5020864;28;20448;-69
2022/07/09 10:18:58;;;;;;;5.65;1.77;;;20.80;99.90;;;;;;5020494;28;20358;-69
2022/07/09 10:21:38;;;;;;;9.15;2.08;;;20.90;99.90;;;;;;5020327;28;20091;-69
2022/07/09 10:24:05;;;;;;;5.70;1.45;;;21.00;99.90;;;;;;5034512;28;20048;-69
2022/07/09 10:26:49;;;;;;;6.43;1.92;;;21.00;99.90;;;;;;5032942;28;20095;-69
2022/07/09 10:29:23;;;;;;;5.65;1.30;;;20.90;99.90;;;;;;5016780;28;20584;-69
2022/07/09 10:31:49;;;;;;;6.22;1.40;;;20.90;99.90;;;;;;5017456;28;20402;-69
2022/07/09 10:34:36;;;;;;;4.20;1.33;;;21.10;99.90;;;;;;5016567;28;20076;-69
2022/07/09 10:37:04;;;;;;;5.78;1.35;;;21.20;99.90;;;;;;5016609;28;20103;-69
2022/07/09 10:39:30;;;;;;;5.97;1.67;;;21.40;99.90;;;;;;5000360;28;20559;-69
2022/07/09 10:42:00;;;;;;;5.90;1.50;;;21.50;99.90;;;;;;5016516;28;20037;-69
2022/07/09 10:44:37;;;;;;;4.57;1.70;;;21.50;99.90;;;;;;4999812;28;20068;-69
2022/07/09 10:47:04;;;;;;;6.78;1.52;;;21.70;99.90;;;;;;5016523;28;20038;-69
2022/07/09 10:49:33;;;;;;;6.90;1.60;;;21.90;99.90;;;;;;5036308;28;20393;-69
2022/07/09 10:51:59;;;;;;;6.78;1.80;;;21.80;99.90;;;;;;5020021;28;20055;-69
2022/07/09 10:54:26;;;;;;;8.23;2.08;;;21.60;99.90;;;;;;5036115;28;20040;-69
2022/07/09 10:56:52;;;;;;;6.78;1.65;;;21.40;99.90;;;;;;5019852;28;20080;-69
2022/07/09 10:59:19;;;;;;;9.20;2.00;;;21.10;99.90;;;;;;5036041;28;20124;-69
2022/07/09 11:01:45;;;;;;;7.25;1.90;;;20.80;99.90;;;;;;5035886;28;20123;-69
2022/07/09 11:04:13;;;;;;;6.30;1.67;;;20.90;99.90;;;;;;5019610;28;20500;-69
2022/07/09 11:06:46;;;;;;;8.82;2.03;;;20.90;99.90;;;;;;5017929;28;20099;-70
2022/07/09 11:09:13;;;;;;;9.23;2.10;;;20.70;99.90;;;;;;5035878;28;20124;-69
2022/07/09 11:11:42;;;;;;;5.63;1.92;;;20.40;99.90;;;;;;5036003;28;20053;-70
2022/07/09 11:14:09;;;;;;;9.60;2.10;;;20.50;99.90;;;;;;5035783;28;20052;-69
2022/07/09 11:16:35;;;;;;;6.47;1.50;;;20.30;99.90;;;;;;5035696;28;20123;-70
2022/07/09 11:19:15;;;;;;;6.10;1.65;;;20.30;99.90;;;;;;5035837;28;20482;-69
2022/07/09 11:21:41;;;;;;;6.63;1.90;;;20.30;99.90;;;;;;5032423;28;20060;-69
2022/07/09 11:24:19;;;;;;;7.03;1.77;;;20.30;99.90;;;;;;5035730;28;20036;-69
2022/07/09 11:26:46;;;;;;;7.22;2.00;;;20.50;99.90;;;;;;5035264;28;20044;-69
2022/07/09 11:29:12;;;;;;;7.45;1.80;;;20.60;99.90;;;;;;5033657;28;20044;-69
2022/07/09 11:31:52;;;;;;;10.63;1.92;;;20.60;99.90;;;;;;5035143;28;20045;-69
2022/07/09 11:34:19;;;;;;;8.98;2.40;;;20.60;99.90;;;;;;5048324;28;20106;-69
2022/07/09 11:36:53;;;;;;;7.57;1.92;;;20.60;99.90;;;;;;5051688;28;20055;-69
2022/07/09 11:39:33;;;;;;;8.57;1.90;;;20.40;99.90;;;;;;5019025;28;20040;-69
2022/07/09 11:42:01;;;;;;;5.57;1.52;;;20.20;99.90;;;;;;5028934;28;20041;-69
2022/07/09 11:44:33;;;;;;;8.25;1.65;;;20.30;99.90;;;;;;5016359;28;20040;-69
2022/07/09 11:47:06;;;;;;;6.40;1.60;;;20.20;99.90;;;;;;5018586;28;20037;-69
2022/07/09 11:49:33;;;;;;;7.47;1.60;;;20.20;99.90;;;;;;5018934;28;20040;-69
2022/07/09 11:51:59;;;;;;;5.43;1.10;;;20.20;99.90;;;;;;5035448;28;20595;-69
2022/07/09 11:54:28;;;;;;;5.75;1.13;;;20.20;99.90;;;;;;5019185;28;20135;-69
2022/07/09 11:56:54;;;;;;;6.90;1.63;;;20.30;99.90;;;;;;5016151;28;20189;-69
2022/07/09 11:59:34;;;;;;;5.97;1.15;;;20.40;99.90;;;;;;5015465;28;20124;-70
2022/07/09 12:02:02;;;;;;;8.63;1.25;;;20.40;99.90;;;;;;5015459;28;20038;-69
2022/07/09 12:04:30;;;;;;;5.85;1.17;;;20.50;99.90;;;;;;5015761;28;20041;-69
2022/07/09 12:06:57;;;;;;;8.18;1.45;;;20.70;99.90;;;;;;5028472;28;20044;-69
2022/07/09 12:09:31;;;;;;;7.50;1.38;;;20.80;99.90;;;;;;5035299;28;20033;-69
2022/07/09 12:11:58;;;;;;;3.90;0.85;;;20.70;99.90;;;;;;5035258;28;20037;-69
2022/07/09 12:14:23;;;;;;;6.80;1.00;;;20.70;99.90;;;;;;5034956;28;20501;-69
2022/07/09 12:16:49;;;;;;;5.50;1.30;;;20.70;99.90;;;;;;5034923;28;20040;-69
2022/07/09 12:19:15;;;;;;;5.93;1.20;;;20.80;99.90;;;;;;5035002;28;20048;-69
2022/07/09 12:21:41;;;;;;;4.88;1.00;;;20.70;99.90;;;;;;5034911;28;20053;-69
2022/07/09 12:24:06;;;;;;;4.13;0.95;;;20.60;99.90;;;;;;5035295;28;20079;-69
2022/07/09 12:26:32;;;;;;;8.68;1.10;;;20.60;99.90;;;;;;5035216;28;20037;-69
2022/07/09 12:28:58;;;;;;;5.38;1.10;;;20.60;99.90;;;;;;5014915;28;20044;-69
2022/07/09 12:31:24;;;;;;;6.72;1.48;;;20.60;99.90;;;;;;5034889;28;20506;-69
2022/07/09 12:33:49;;;;;;;5.43;1.30;;;20.50;99.90;;;;;;5048721;28;20080;-69
2022/07/09 12:36:16;;;;;;;6.43;1.15;;;20.60;99.90;;;;;;5015339;28;20072;-69
2022/07/09 12:38:42;;;;;;;6.07;1.40;;;20.50;99.90;;;;;;5015056;28;20045;-68
2022/07/09 12:41:08;;;;;;;7.50;1.23;;;20.30;99.90;;;;;;5018770;28;20043;-68
2022/07/09 12:43:34;;;;;;;5.10;1.50;;;20.40;99.90;;;;;;5034479;28;20116;-68